Etobicoke, Canada
Current Conditions -  °F | °C
As of 5:00 PM on Tuesday 25 Nov 2014 (Local Time) from CYYZ Reporting Station
Overcast Overcast  
Wind Chill: 22°   Ceiling: 3000
Heat Index: 34°   Visibility: 15mi
Dew Point: 25°   Wind: 20mph
Humidity: 70%   Direction: 250°WSW
Pressure: 30.01"   Gusts: 28mph
Location:  43.64°N, 79.57°W
Report Text: CYYZ 252200Z 25017G24KT 15SM OVC030 01/M04 A3001 RMK SC8 SLP170
Loading
Personal Weather Stations






























Interactive Weather Map New forecast layout! Learn more

10-Day Weather Forecast

Advertisements
Track Severe Weather on mobile